createdAt,value
2022-09-25T00:01:26.452Z,1.70
2022-09-25T00:03:55.957Z,2.33
2022-09-25T00:06:29.143Z,1.70
2022-09-25T00:08:58.841Z,1.57
2022-09-25T00:11:29.564Z,1.70
2022-09-25T00:13:57.890Z,1.80
2022-09-25T00:16:30.535Z,1.67
2022-09-25T00:19:19.863Z,1.90
2022-09-25T00:21:53.186Z,1.90
2022-09-25T00:24:22.267Z,1.33
2022-09-25T00:26:50.421Z,1.90
2022-09-25T00:29:21.508Z,2.20
2022-09-25T00:31:49.537Z,2.37
2022-09-25T00:34:18.947Z,2.60
2022-09-25T00:36:49.903Z,1.90
2022-09-25T00:39:17.947Z,2.07
2022-09-25T00:41:46.121Z,1.90
2022-09-25T00:44:56.446Z,1.93
2022-09-25T00:47:45.975Z,2.10
2022-09-25T00:50:33.468Z,1.90
2022-09-25T00:53:06.317Z,2.10
2022-09-25T00:55:35.498Z,1.90
2022-09-25T00:58:04.909Z,1.87
2022-09-25T01:00:34.432Z,2.30
2022-09-25T01:03:05.154Z,1.90
2022-09-25T01:05:38.698Z,2.40
2022-09-25T01:08:10.186Z,1.97
2022-09-25T01:10:38.518Z,2.10
2022-09-25T01:13:07.308Z,2.40
2022-09-25T01:15:44.045Z,2.63
2022-09-25T01:18:28.429Z,3.17
2022-09-25T01:21:15.231Z,3.03
2022-09-25T01:24:20.068Z,2.20
2022-09-25T01:27:11.493Z,2.23
2022-09-25T01:29:45.947Z,2.00
2022-09-25T01:32:21.664Z,2.47
2022-09-25T01:34:56.740Z,2.40
2022-09-25T01:37:33.497Z,2.50
2022-09-25T01:40:09.824Z,3.27
2022-09-25T01:42:42.400Z,2.57
2022-09-25T01:45:23.139Z,2.57
2022-09-25T01:47:53.547Z,2.30
2022-09-25T01:50:27.660Z,2.17
2022-09-25T01:56:43.182Z,2.07
2022-09-25T01:59:17.134Z,2.07
2022-09-25T02:01:47.699Z,2.47
2022-09-25T02:04:18.541Z,2.20
2022-09-25T02:06:49.742Z,2.23
2022-09-25T02:09:23.394Z,2.60
2022-09-25T02:11:56.458Z,2.43
2022-09-25T02:14:28.477Z,2.50
2022-09-25T02:17:01.431Z,2.43
2022-09-25T02:19:46.747Z,2.60
2022-09-25T02:22:19.892Z,2.20
2022-09-25T02:24:58.617Z,2.50
2022-09-25T02:27:29.506Z,2.77
2022-09-25T02:29:58.332Z,2.40
2022-09-25T02:32:31.769Z,2.30
2022-09-25T02:35:00.865Z,2.40
2022-09-25T02:37:29.882Z,2.73
2022-09-25T02:40:02.124Z,2.67
2022-09-25T02:42:40.130Z,2.10
2022-09-25T02:45:25.146Z,2.70
2022-09-25T02:48:04.278Z,2.47
2022-09-25T02:50:39.978Z,2.37
2022-09-25T02:53:16.082Z,2.37
2022-09-25T02:55:49.446Z,2.40
2022-09-25T02:58:21.452Z,2.27
2022-09-25T03:06:12.036Z,2.73
2022-09-25T03:08:45.632Z,2.83
2022-09-25T03:11:15.973Z,2.60
2022-09-25T03:13:44.654Z,2.90
2022-09-25T03:16:20.454Z,2.90
2022-09-25T03:18:49.266Z,2.67
2022-09-25T03:21:19.073Z,2.43
2022-09-25T03:23:49.731Z,2.27
2022-09-25T03:26:19.681Z,3.27
2022-09-25T03:28:48.354Z,2.47
2022-09-25T03:31:16.632Z,2.70
2022-09-25T03:33:48.566Z,3.47
2022-09-25T03:36:20.730Z,2.73
2022-09-25T03:38:51.722Z,2.63
2022-09-25T03:41:21.547Z,2.80
2022-09-25T03:43:52.131Z,2.43
2022-09-25T03:46:22.197Z,2.80
2022-09-25T03:48:50.474Z,2.93
2022-09-25T03:51:20.259Z,3.20
2022-09-25T03:53:48.927Z,2.47
2022-09-25T03:56:20.028Z,3.13
2022-09-25T03:58:48.793Z,3.07
2022-09-25T04:01:24.469Z,2.87
2022-09-25T04:03:53.198Z,2.93
2022-09-25T04:06:27.911Z,3.00
2022-09-25T04:08:56.373Z,3.43
2022-09-25T04:11:28.169Z,2.77
2022-09-25T04:13:57.036Z,3.23
2022-09-25T04:16:25.153Z,3.47
2022-09-25T04:18:53.535Z,3.13
2022-09-25T04:21:23.065Z,2.87
2022-09-25T04:24:05.149Z,2.63
2022-09-25T04:26:33.510Z,3.20
2022-09-25T04:29:02.136Z,3.23
2022-09-25T04:31:30.799Z,2.67
2022-09-25T04:33:57.947Z,3.13
2022-09-25T04:36:27.555Z,3.20
2022-09-25T04:38:55.675Z,3.60
2022-09-25T04:41:23.744Z,3.70
2022-09-25T04:43:51.826Z,3.10
2022-09-25T04:46:22.341Z,3.40
2022-09-25T04:48:51.298Z,3.50
2022-09-25T04:51:19.722Z,3.47
2022-09-25T04:53:49.157Z,3.63
2022-09-25T04:56:17.254Z,3.33
2022-09-25T04:58:47.570Z,3.47
2022-09-25T05:01:16.648Z,3.37
2022-09-25T05:03:44.876Z,3.80
2022-09-25T05:06:12.972Z,4.37
2022-09-25T05:08:41.136Z,4.30
2022-09-25T05:11:11.467Z,3.80
2022-09-25T05:13:39.579Z,4.70
2022-09-25T05:16:08.045Z,5.00
2022-09-25T05:18:38.528Z,4.97
2022-09-25T05:21:07.039Z,4.13
2022-09-25T05:23:35.151Z,4.90
2022-09-25T05:26:03.299Z,4.73
2022-09-25T05:28:33.815Z,4.97
2022-09-25T05:31:04.907Z,4.37
2022-09-25T05:33:33.223Z,4.50
2022-09-25T05:36:05.598Z,4.50
2022-09-25T05:38:35.158Z,4.97
2022-09-25T05:41:10.787Z,4.80
2022-09-25T05:43:47.636Z,5.00
2022-09-25T05:46:16.570Z,4.93
2022-09-25T05:48:44.840Z,5.33
2022-09-25T05:51:13.087Z,5.40
2022-09-25T05:53:41.471Z,5.23
2022-09-25T05:56:09.917Z,4.87
2022-09-25T05:58:41.696Z,5.40
2022-09-25T06:01:13.360Z,5.37
2022-09-25T06:03:41.656Z,6.00
2022-09-25T06:06:10.046Z,5.17
2022-09-25T06:08:39.906Z,6.73
2022-09-25T06:11:08.263Z,6.60
2022-09-25T06:13:37.128Z,5.67
2022-09-25T06:16:14.360Z,5.90
2022-09-25T06:18:44.386Z,5.67
2022-09-25T06:21:12.567Z,4.83
2022-09-25T06:23:44.966Z,4.40
2022-09-25T06:26:14.197Z,4.67
2022-09-25T06:28:42.306Z,4.47
2022-09-25T06:31:10.655Z,4.90
2022-09-25T06:33:38.712Z,4.90
2022-09-25T06:40:02.890Z,4.87
2022-09-25T06:42:31.229Z,4.17
2022-09-25T06:44:59.508Z,4.23
2022-09-25T06:47:27.660Z,2.67
2022-09-25T06:49:55.803Z,2.13
2022-09-25T06:52:23.866Z,1.87
2022-09-25T06:54:52.021Z,2.42
2022-09-25T06:57:24.404Z,2.20
2022-09-25T06:59:52.533Z,1.40
2022-09-25T07:02:37.945Z,1.83
2022-09-25T07:05:09.748Z,1.50
2022-09-25T07:07:40.937Z,1.55
2022-09-25T07:10:09.607Z,1.17
2022-09-25T07:12:40.147Z,1.70
2022-09-25T07:15:12.483Z,1.45
2022-09-25T07:17:46.348Z,1.83
2022-09-25T07:20:18.317Z,1.17
2022-09-25T07:22:48.631Z,1.15
2022-09-25T07:25:17.083Z,1.23
2022-09-25T07:27:46.532Z,0.90
2022-09-25T07:30:14.971Z,1.00
2022-09-25T07:32:45.763Z,1.40
2022-09-25T07:35:15.981Z,1.40
2022-09-25T07:37:46.818Z,1.15
2022-09-25T07:40:18.085Z,1.15
2022-09-25T07:42:49.668Z,0.82
2022-09-25T08:00:33.158Z,0.93
2022-09-25T08:03:01.324Z,1.15
2022-09-25T08:05:29.888Z,1.25
2022-09-25T08:07:58.041Z,1.30
2022-09-25T08:10:26.183Z,1.30
2022-09-25T08:12:54.317Z,1.05
2022-09-25T08:15:22.651Z,1.75
2022-09-25T08:17:55.157Z,0.95
2022-09-25T08:20:23.244Z,1.20
2022-09-25T08:22:54.930Z,1.35
2022-09-25T08:25:23.101Z,1.30
2022-09-25T08:27:51.592Z,0.80
2022-09-25T08:30:23.158Z,1.15
2022-09-25T08:32:53.219Z,0.95
2022-09-25T08:35:21.903Z,1.20
2022-09-25T08:37:50.103Z,1.20
2022-09-25T08:40:20.679Z,0.98
2022-09-25T08:42:53.052Z,1.00
2022-09-25T08:45:48.393Z,0.70
2022-09-25T08:48:41.373Z,1.23
2022-09-25T08:51:16.535Z,0.80
2022-09-25T08:53:46.185Z,1.17
2022-09-25T08:56:18.064Z,1.52
2022-09-25T08:58:52.468Z,0.90
2022-09-25T09:01:24.575Z,0.80
2022-09-25T09:03:58.784Z,0.80
2022-09-25T09:06:29.168Z,1.13
2022-09-25T09:09:08.109Z,0.90
2022-09-25T09:11:41.256Z,0.90
2022-09-25T09:14:15.774Z,0.93
2022-09-25T09:16:47.851Z,1.10
2022-09-25T09:19:22.581Z,0.90
2022-09-25T09:21:55.958Z,1.02
2022-09-25T09:24:32.738Z,0.90
2022-09-25T09:27:17.686Z,1.23
2022-09-25T09:30:06.121Z,0.70
2022-09-25T09:32:55.689Z,0.57
2022-09-25T09:35:34.150Z,0.77
2022-09-25T09:38:11.076Z,0.65
2022-09-25T09:41:06.190Z,0.70
2022-09-25T09:43:48.022Z,0.85
2022-09-25T09:46:22.163Z,0.65
2022-09-25T09:49:00.932Z,0.95
2022-09-25T09:51:47.720Z,0.77
2022-09-25T09:54:21.324Z,0.90
2022-09-25T09:56:57.966Z,0.40
2022-09-25T09:59:31.488Z,0.80
2022-09-25T10:02:23.324Z,0.65
2022-09-25T10:04:58.606Z,0.47
2022-09-25T10:07:31.292Z,0.60
2022-09-25T10:09:59.361Z,0.50
2022-09-25T10:12:31.287Z,0.50
2022-09-25T10:15:05.782Z,0.77
2022-09-25T10:17:38.039Z,0.60
2022-09-25T10:20:16.856Z,0.57
2022-09-25T10:22:48.060Z,0.80
2022-09-25T10:25:39.871Z,0.55
2022-09-25T10:28:30.575Z,0.57
2022-09-25T10:31:00.064Z,0.80
2022-09-25T10:33:30.830Z,0.90
2022-09-25T10:35:59.835Z,0.57
2022-09-25T10:38:48.751Z,0.70
2022-09-25T10:41:21.449Z,0.70
2022-09-25T10:43:54.332Z,1.03
2022-09-25T10:46:48.033Z,1.02
2022-09-25T10:49:36.840Z,1.10
2022-09-25T10:52:07.095Z,1.08
2022-09-25T10:54:43.605Z,0.90
2022-09-25T10:57:19.008Z,0.60
2022-09-25T10:59:53.044Z,0.80
2022-09-25T11:02:33.674Z,1.13
2022-09-25T11:05:02.530Z,0.68
2022-09-25T11:07:31.563Z,0.70
2022-09-25T11:10:01.171Z,0.80
2022-09-25T11:12:33.221Z,0.70
2022-09-25T11:15:07.252Z,0.50
2022-09-25T11:17:40.518Z,0.50
2022-09-25T11:20:22.845Z,0.50
2022-09-25T11:22:56.272Z,0.70
2022-09-25T11:25:34.214Z,0.83
2022-09-25T11:28:06.960Z,0.50
2022-09-25T11:30:48.214Z,0.80
2022-09-25T11:33:25.210Z,0.50
2022-09-25T11:35:59.050Z,0.70
2022-09-25T11:38:55.639Z,0.67
2022-09-25T11:41:34.579Z,0.88
2022-09-25T11:44:17.840Z,0.80
2022-09-25T11:46:59.984Z,0.80
2022-09-25T11:49:31.449Z,1.03
2022-09-25T11:52:20.748Z,0.60
2022-09-25T11:55:30.071Z,0.80
2022-09-25T11:58:08.030Z,0.70
2022-09-25T12:00:45.144Z,0.80
2022-09-25T12:03:29.572Z,0.70
2022-09-25T12:06:40.539Z,1.00
2022-09-25T12:09:22.429Z,0.98
2022-09-25T12:12:05.510Z,0.77
2022-09-25T12:14:43.376Z,0.70
2022-09-25T12:17:22.235Z,0.68
2022-09-25T12:19:58.339Z,0.80
2022-09-25T12:22:41.711Z,0.50
2022-09-25T12:25:31.574Z,1.15
2022-09-25T12:28:08.860Z,0.80
2022-09-25T12:30:48.691Z,0.65
2022-09-25T12:33:26.155Z,0.90
2022-09-25T12:35:59.951Z,0.80
2022-09-25T12:38:38.237Z,0.73
2022-09-25T12:41:11.881Z,0.40
2022-09-25T12:43:47.752Z,0.40
2022-09-25T12:46:26.235Z,0.53
2022-09-25T12:48:59.169Z,1.07
2022-09-25T12:51:34.131Z,0.67
2022-09-25T12:54:08.367Z,0.60
2022-09-25T12:56:46.723Z,0.50
2022-09-25T12:59:22.889Z,0.50
2022-09-25T13:02:00.109Z,0.60
2022-09-25T13:04:43.298Z,0.90
2022-09-25T13:07:18.272Z,0.73
2022-09-25T13:09:49.174Z,0.47
2022-09-25T13:12:28.560Z,0.50
2022-09-25T13:15:03.184Z,0.60
2022-09-25T13:17:32.752Z,0.70
2022-09-25T13:20:36.392Z,0.40
2022-09-25T13:23:07.222Z,0.60
2022-09-25T13:25:46.505Z,0.70
2022-09-25T13:28:21.488Z,0.63
2022-09-25T13:31:06.830Z,0.60
2022-09-25T13:33:47.167Z,0.60
2022-09-25T13:36:36.209Z,0.50
2022-09-25T13:39:46.178Z,0.60
2022-09-25T13:42:24.581Z,0.87
2022-09-25T13:45:06.359Z,0.50
2022-09-25T13:47:50.139Z,0.60
2022-09-25T13:50:39.703Z,0.80
2022-09-25T13:53:33.552Z,0.73
2022-09-25T13:56:19.630Z,0.73
2022-09-25T13:59:26.263Z,0.83
2022-09-25T14:02:01.367Z,0.87
2022-09-25T14:04:33.892Z,0.87
2022-09-25T14:07:19.334Z,0.93
2022-09-25T14:09:51.509Z,0.60
2022-09-25T14:12:39.052Z,0.60
2022-09-25T14:15:13.321Z,0.80
2022-09-25T14:17:44.347Z,0.80
2022-09-25T14:20:34.378Z,0.80
2022-09-25T14:23:07.932Z,0.70
2022-09-25T14:25:38.994Z,0.70
2022-09-25T14:28:20.377Z,1.10
2022-09-25T14:31:14.934Z,0.70
2022-09-25T14:33:59.396Z,0.60
2022-09-25T14:36:37.255Z,0.60
2022-09-25T14:39:29.046Z,0.87
2022-09-25T14:42:27.876Z,0.80
2022-09-25T14:45:25.146Z,1.07
2022-09-25T14:47:57.456Z,0.80
2022-09-25T14:50:28.165Z,0.50
2022-09-25T14:52:58.834Z,0.57
2022-09-25T14:55:35.000Z,0.50
2022-09-25T14:58:05.136Z,0.50
2022-09-25T15:00:33.562Z,0.40
2022-09-25T15:03:02.680Z,0.57
2022-09-25T15:05:33.615Z,0.40
2022-09-25T15:08:14.025Z,0.80
2022-09-25T15:10:43.748Z,0.40
2022-09-25T15:13:17.056Z,0.40
2022-09-25T15:16:02.232Z,0.40
2022-09-25T15:18:31.344Z,0.47
2022-09-25T15:20:59.786Z,0.37
2022-09-25T15:23:31.755Z,0.50
2022-09-25T15:26:04.376Z,0.53
2022-09-25T15:28:40.260Z,0.47
2022-09-25T15:31:09.012Z,0.50
2022-09-25T15:33:38.337Z,0.47
2022-09-25T15:36:16.982Z,0.40
2022-09-25T15:38:45.555Z,0.53
2022-09-25T15:41:16.676Z,0.83
2022-09-25T15:43:44.877Z,1.17
2022-09-25T15:46:38.042Z,0.57
2022-09-25T15:49:06.715Z,0.40
2022-09-25T15:51:37.269Z,0.50
2022-09-25T15:54:19.758Z,0.40
2022-09-25T15:56:53.349Z,0.40
2022-09-25T15:59:23.766Z,0.57
2022-09-25T16:02:10.110Z,0.30
2022-09-25T16:04:49.308Z,0.33
2022-09-25T16:07:29.325Z,0.40
2022-09-25T16:09:59.475Z,0.60
2022-09-25T16:12:35.982Z,0.53
2022-09-25T16:15:47.852Z,0.57
2022-09-25T16:18:28.346Z,0.47
2022-09-25T16:21:10.317Z,0.50
2022-09-25T16:23:40.067Z,0.40
2022-09-25T16:26:16.531Z,0.70
2022-09-25T16:28:54.215Z,0.80
2022-09-25T16:31:24.335Z,0.70
2022-09-25T16:33:56.670Z,0.70
2022-09-25T16:36:27.036Z,0.40
2022-09-25T16:39:31.399Z,0.40
2022-09-25T16:42:00.361Z,0.60
2022-09-25T16:44:47.085Z,0.37
2022-09-25T16:47:18.841Z,0.50
2022-09-25T16:49:47.373Z,0.60
2022-09-25T16:52:21.391Z,0.43
2022-09-25T16:54:53.377Z,0.70
2022-09-25T16:57:22.549Z,0.50
2022-09-25T16:59:53.027Z,0.70
2022-09-25T17:02:33.310Z,0.47
2022-09-25T17:05:03.794Z,0.47
2022-09-25T17:07:31.868Z,0.50
2022-09-25T17:10:01.007Z,0.83
2022-09-25T17:12:32.507Z,0.60
2022-09-25T17:15:02.386Z,0.80
2022-09-25T17:17:31.139Z,0.70
2022-09-25T17:19:59.256Z,0.90
2022-09-25T17:22:30.407Z,0.70
2022-09-25T17:25:02.820Z,1.00
2022-09-25T17:27:32.298Z,0.80
2022-09-25T17:30:01.744Z,0.80
2022-09-25T17:32:31.338Z,1.00
2022-09-25T17:35:01.802Z,1.43
2022-09-25T17:37:31.990Z,1.00
2022-09-25T17:40:00.698Z,1.27
2022-09-25T17:42:28.708Z,2.30
2022-09-25T17:44:57.526Z,2.30
2022-09-25T17:47:29.790Z,2.20
2022-09-25T17:49:59.249Z,1.60
2022-09-25T17:52:27.290Z,2.00
2022-09-25T17:54:55.403Z,1.40
2022-09-25T17:57:23.500Z,2.20
2022-09-25T17:59:52.152Z,1.57
2022-09-25T18:02:20.314Z,2.03
2022-09-25T18:04:49.762Z,1.57
2022-09-25T18:07:18.701Z,1.70
2022-09-25T18:09:46.678Z,1.67
2022-09-25T18:12:14.770Z,1.60
2022-09-25T18:14:46.334Z,2.30
2022-09-25T18:17:15.902Z,2.00
2022-09-25T18:20:01.631Z,2.80
2022-09-25T18:22:31.085Z,2.77
2022-09-25T18:24:59.361Z,2.60
2022-09-25T18:27:30.447Z,2.20
2022-09-25T18:29:58.520Z,2.23
2022-09-25T18:32:26.924Z,2.17
2022-09-25T18:34:54.996Z,2.40
2022-09-25T18:37:23.008Z,2.30
2022-09-25T18:39:52.494Z,1.80
2022-09-25T18:42:20.615Z,1.80
2022-09-25T18:44:48.696Z,2.53
2022-09-25T18:47:16.730Z,2.10
2022-09-25T18:49:45.441Z,2.30
2022-09-25T18:52:13.502Z,2.40
2022-09-25T18:54:42.391Z,2.10
2022-09-25T18:57:12.572Z,2.43
2022-09-25T18:59:41.140Z,2.67
2022-09-25T19:02:13.448Z,2.37
2022-09-25T19:04:41.576Z,1.93
2022-09-25T19:07:09.641Z,2.20
2022-09-25T19:09:37.759Z,1.97
2022-09-25T19:12:07.241Z,2.00
2022-09-25T19:14:36.753Z,2.40
2022-09-25T19:17:05.188Z,2.03
2022-09-25T19:19:35.021Z,2.20
2022-09-25T19:22:03.099Z,2.63
2022-09-25T19:24:34.662Z,2.53
2022-09-25T19:27:02.746Z,2.40
2022-09-25T19:29:31.738Z,3.63
2022-09-25T19:32:01.170Z,3.23
2022-09-25T19:34:29.263Z,3.60
2022-09-25T19:36:57.520Z,2.77
2022-09-25T19:39:26.209Z,3.17
2022-09-25T19:41:55.134Z,3.33
2022-09-25T19:44:25.042Z,3.40
2022-09-25T19:46:53.353Z,3.33
2022-09-25T19:49:22.874Z,3.03
2022-09-25T19:51:50.947Z,3.77
2022-09-25T19:54:19.239Z,3.93
2022-09-25T19:56:47.373Z,3.77
2022-09-25T19:59:17.416Z,3.57
2022-09-25T20:01:46.098Z,3.43
2022-09-25T20:04:18.738Z,4.03
2022-09-25T20:06:48.814Z,3.70
2022-09-25T20:09:17.077Z,3.63
2022-09-25T20:11:45.814Z,3.27
2022-09-25T20:14:14.088Z,3.83
2022-09-25T20:16:42.415Z,4.17
2022-09-25T20:19:11.635Z,4.00
2022-09-25T20:21:41.506Z,3.83
2022-09-25T20:24:11.113Z,4.20
2022-09-25T20:26:39.656Z,3.77
2022-09-25T20:29:12.758Z,3.67
2022-09-25T20:31:42.997Z,3.20
2022-09-25T20:34:13.953Z,3.80
2022-09-25T20:36:42.095Z,3.90
2022-09-25T20:39:13.642Z,4.10
2022-09-25T20:41:45.300Z,3.10
2022-09-25T20:44:13.451Z,3.23
2022-09-25T20:46:42.166Z,3.00
2022-09-25T20:49:12.047Z,3.90
2022-09-25T20:51:41.191Z,3.83
2022-09-25T20:54:11.763Z,3.37
2022-09-25T20:56:43.735Z,3.23
2022-09-25T20:59:12.510Z,3.00
2022-09-25T21:01:41.480Z,3.67
2022-09-25T21:04:10.390Z,3.20
2022-09-25T21:06:40.675Z,3.63
2022-09-25T21:09:12.948Z,3.93
2022-09-25T21:11:43.575Z,4.03
2022-09-25T21:14:16.455Z,3.93
2022-09-25T21:16:44.580Z,4.00
2022-09-25T21:19:14.510Z,3.30
2022-09-25T21:21:43.024Z,3.93
2022-09-25T21:24:15.068Z,3.70
2022-09-25T21:26:45.248Z,4.00
2022-09-25T21:29:14.628Z,3.93
2022-09-25T21:31:49.437Z,4.03
2022-09-25T21:34:19.231Z,3.97
2022-09-25T21:36:47.544Z,4.13
2022-09-25T21:39:15.869Z,4.33
2022-09-25T21:41:45.888Z,3.87
2022-09-25T21:44:15.954Z,4.13
2022-09-25T21:46:44.773Z,3.67
2022-09-25T21:49:17.825Z,3.80
2022-09-25T21:51:46.752Z,3.60
2022-09-25T21:54:16.036Z,3.37
2022-09-25T21:56:45.479Z,4.13
2022-09-25T21:59:14.078Z,4.57
2022-09-25T22:01:42.672Z,3.83
2022-09-25T22:04:13.758Z,4.20
2022-09-25T22:06:44.488Z,3.77
2022-09-25T22:09:14.717Z,4.17
2022-09-25T22:11:45.023Z,4.03
2022-09-25T22:14:16.144Z,4.00
2022-09-25T22:16:45.908Z,3.70
2022-09-25T22:19:16.393Z,3.90
2022-09-25T22:21:46.657Z,4.33
2022-09-25T22:24:15.084Z,3.97
2022-09-25T22:26:46.692Z,3.80
2022-09-25T22:29:16.402Z,3.60
2022-09-25T22:31:44.782Z,4.37
2022-09-25T22:34:18.541Z,3.73
2022-09-25T22:36:47.276Z,3.60
2022-09-25T22:39:17.920Z,3.70
2022-09-25T22:41:50.821Z,4.40
2022-09-25T22:44:19.299Z,3.30
2022-09-25T22:46:47.605Z,3.10
2022-09-25T22:49:15.782Z,3.50
2022-09-25T22:51:44.070Z,3.73
2022-09-25T22:54:13.789Z,3.70
2022-09-25T22:56:42.902Z,4.20
2022-09-25T22:59:16.215Z,3.17
2022-09-25T23:01:47.277Z,3.33
2022-09-25T23:04:17.086Z,4.10
2022-09-25T23:06:45.224Z,3.60
2022-09-25T23:09:15.667Z,3.83
2022-09-25T23:11:44.117Z,4.00
2022-09-25T23:14:17.016Z,4.20
2022-09-25T23:16:46.433Z,3.80
2022-09-25T23:19:15.381Z,3.43
2022-09-25T23:21:44.153Z,3.70
2022-09-25T23:24:14.551Z,3.70
2022-09-25T23:26:43.012Z,4.27
2022-09-25T23:29:15.263Z,4.27
2022-09-25T23:31:43.557Z,4.07
2022-09-25T23:34:12.413Z,4.00
2022-09-25T23:36:40.930Z,3.70
2022-09-25T23:39:09.944Z,4.07
2022-09-25T23:41:39.655Z,4.33
2022-09-25T23:44:10.417Z,4.70
2022-09-25T23:46:41.935Z,4.37
2022-09-25T23:49:11.206Z,4.67
2022-09-25T23:51:39.685Z,5.03
2022-09-25T23:54:07.979Z,4.67
2022-09-25T23:56:36.980Z,3.90
2022-09-25T23:59:05.866Z,4.80
